sensor_id;sensor_type;location;lat;lon;timestamp;pressure;altitude;pressure_sealevel;temperature;humidity
50384;BME280;36301;48.310;12.786;2023-06-14T03:02:38;95783.41;;;9.67;76.06
50384;BME280;36301;48.310;12.786;2023-06-14T03:05:05;95779.25;;;9.66;76.11
50384;BME280;36301;48.310;12.786;2023-06-14T03:07:33;95786.53;;;9.76;76.25
50384;BME280;36301;48.310;12.786;2023-06-14T03:10:00;95784.94;;;9.68;75.45
50384;BME280;36301;48.310;12.786;2023-06-14T03:12:27;95795.94;;;9.74;77.93
50384;BME280;36301;48.310;12.786;2023-06-14T03:14:54;95801.25;;;9.77;78.64
50384;BME280;36301;48.310;12.786;2023-06-14T03:17:23;95803.56;;;9.79;76.18
50384;BME280;36301;48.310;12.786;2023-06-14T03:19:50;95809.22;;;9.81;75.54
50384;BME280;36301;48.310;12.786;2023-06-14T03:22:17;95802.38;;;9.76;75.91
50384;BME280;36301;48.310;12.786;2023-06-14T03:24:44;95819.44;;;9.82;75.53
50384;BME280;36301;48.310;12.786;2023-06-14T03:27:11;95813.44;;;9.85;74.84
50384;BME280;36301;48.310;12.786;2023-06-14T03:29:38;95817.22;;;9.88;74.50
50384;BME280;36301;48.310;12.786;2023-06-14T03:32:06;95818.78;;;9.93;75.62
50384;BME280;36301;48.310;12.786;2023-06-14T03:34:33;95814.19;;;9.86;79.82
50384;BME280;36301;48.310;12.786;2023-06-14T03:36:59;95817.22;;;9.88;79.03
50384;BME280;36301;48.310;12.786;2023-06-14T03:39:26;95813.81;;;9.87;78.13
50384;BME280;36301;48.310;12.786;2023-06-14T03:41:53;95802.84;;;9.85;77.26
50384;BME280;36301;48.310;12.786;2023-06-14T03:44:19;95816.91;;;9.97;76.53
50384;BME280;36301;48.310;12.786;2023-06-14T03:46:46;95827.94;;;10.02;77.07
50384;BME280;36301;48.310;12.786;2023-06-14T03:49:13;95835.06;;;9.95;78.39
50384;BME280;36301;48.310;12.786;2023-06-14T03:51:40;95823.19;;;9.81;79.05
50384;BME280;36301;48.310;12.786;2023-06-14T03:54:07;95833.88;;;9.88;79.27
50384;BME280;36301;48.310;12.786;2023-06-14T03:56:53;95824.09;;;9.96;77.03
50384;BME280;36301;48.310;12.786;2023-06-14T03:59:20;95827.69;;;10.18;76.21
50384;BME280;36301;48.310;12.786;2023-06-14T04:01:47;95844.13;;;10.34;74.92
50384;BME280;36301;48.310;12.786;2023-06-14T04:04:15;95828.25;;;10.34;74.68
50384;BME280;36301;48.310;12.786;2023-06-14T04:06:45;95836.72;;;10.58;73.37
50384;BME280;36301;48.310;12.786;2023-06-14T04:09:14;95839.84;;;10.74;74.00
50384;BME280;36301;48.310;12.786;2023-06-14T04:11:41;95821.72;;;10.76;72.39
50384;BME280;36301;48.310;12.786;2023-06-14T04:14:07;95839.22;;;10.99;71.60
50384;BME280;36301;48.310;12.786;2023-06-14T04:16:34;95847.63;;;11.15;71.08
50384;BME280;36301;48.310;12.786;2023-06-14T04:19:01;95846.97;;;11.39;70.49
50384;BME280;36301;48.310;12.786;2023-06-14T04:21:27;95855.50;;;11.91;69.41
50384;BME280;36301;48.310;12.786;2023-06-14T04:23:55;95830.91;;;12.59;65.95
50384;BME280;36301;48.310;12.786;2023-06-14T04:26:22;95835.28;;;13.37;63.07
50384;BME280;36301;48.310;12.786;2023-06-14T04:28:52;95847.66;;;14.31;58.25
50384;BME280;36301;48.310;12.786;2023-06-14T04:31:19;95852.41;;;14.99;55.16
50384;BME280;36301;48.310;12.786;2023-06-14T04:33:47;95850.59;;;15.61;53.66
50384;BME280;36301;48.310;12.786;2023-06-14T04:36:17;95853.38;;;15.84;51.95
50384;BME280;36301;48.310;12.786;2023-06-14T04:38:44;95854.75;;;16.73;49.66
50384;BME280;36301;48.310;12.786;2023-06-14T04:41:16;95863.72;;;17.46;48.07
50384;BME280;36301;48.310;12.786;2023-06-14T04:43:44;95863.16;;;18.11;46.70
50384;BME280;36301;48.310;12.786;2023-06-14T04:46:15;95863.94;;;18.44;45.74
50384;BME280;36301;48.310;12.786;2023-06-14T04:48:42;95863.84;;;18.97;45.59
50384;BME280;36301;48.310;12.786;2023-06-14T04:51:09;95852.06;;;19.36;43.95
50384;BME280;36301;48.310;12.786;2023-06-14T04:53:36;95867.66;;;19.95;42.91
50384;BME280;36301;48.310;12.786;2023-06-14T04:56:03;95867.84;;;19.63;44.82
50384;BME280;36301;48.310;12.786;2023-06-14T04:58:30;95865.19;;;20.27;43.28
50384;BME280;36301;48.310;12.786;2023-06-14T05:00:57;95869.31;;;20.91;42.52
50384;BME280;36301;48.310;12.786;2023-06-14T05:03:25;95874.31;;;21.15;41.69
50384;BME280;36301;48.310;12.786;2023-06-14T05:05:53;95878.31;;;21.45;41.90
50384;BME280;36301;48.310;12.786;2023-06-14T05:08:21;95863.16;;;20.69;42.25
50384;BME280;36301;48.310;12.786;2023-06-14T05:10:50;95881.50;;;21.18;40.48
50384;BME280;36301;48.310;12.786;2023-06-14T05:13:17;95871.84;;;21.42;39.04
50384;BME280;36301;48.310;12.786;2023-06-14T05:15:44;95883.28;;;21.77;38.33
50384;BME280;36301;48.310;12.786;2023-06-14T05:18:10;95883.19;;;21.37;39.33
50384;BME280;36301;48.310;12.786;2023-06-14T05:20:37;95883.84;;;21.72;39.20
50384;BME280;36301;48.310;12.786;2023-06-14T05:23:04;95882.56;;;22.48;37.44
50384;BME280;36301;48.310;12.786;2023-06-14T05:25:30;95894.44;;;22.51;36.85
50384;BME280;36301;48.310;12.786;2023-06-14T05:27:57;95899.59;;;22.86;37.18
50384;BME280;36301;48.310;12.786;2023-06-14T05:30:23;95893.63;;;23.55;35.19
50384;BME280;36301;48.310;12.786;2023-06-14T05:32:50;95902.34;;;23.41;35.50
50384;BME280;36301;48.310;12.786;2023-06-14T05:35:16;95910.75;;;23.24;35.19
50384;BME280;36301;48.310;12.786;2023-06-14T05:37:43;95895.13;;;23.74;34.42
50384;BME280;36301;48.310;12.786;2023-06-14T05:40:10;95908.97;;;23.12;35.52
50384;BME280;36301;48.310;12.786;2023-06-14T05:42:37;95907.47;;;23.48;34.66
50384;BME280;36301;48.310;12.786;2023-06-14T05:45:04;95915.84;;;22.54;36.28
50384;BME280;36301;48.310;12.786;2023-06-14T05:47:32;95913.63;;;23.12;36.32
50384;BME280;36301;48.310;12.786;2023-06-14T05:49:59;95911.91;;;22.96;35.85
50384;BME280;36301;48.310;12.786;2023-06-14T05:52:25;95923.31;;;22.91;35.57
50384;BME280;36301;48.310;12.786;2023-06-14T05:54:52;95911.22;;;23.32;35.81
50384;BME280;36301;48.310;12.786;2023-06-14T05:57:19;95909.25;;;23.60;35.42
50384;BME280;36301;48.310;12.786;2023-06-14T05:59:45;95917.34;;;23.51;35.60
50384;BME280;36301;48.310;12.786;2023-06-14T06:02:12;95909.63;;;24.04;35.18
50384;BME280;36301;48.310;12.786;2023-06-14T06:04:39;95916.00;;;23.46;34.76
50384;BME280;36301;48.310;12.786;2023-06-14T06:07:05;95917.94;;;23.46;36.47
50384;BME280;36301;48.310;12.786;2023-06-14T06:09:32;95907.16;;;23.37;36.33
50384;BME280;36301;48.310;12.786;2023-06-14T06:11:59;95922.44;;;23.95;36.57
50384;BME280;36301;48.310;12.786;2023-06-14T06:14:26;95922.72;;;22.96;35.67
50384;BME280;36301;48.310;12.786;2023-06-14T06:16:54;95914.34;;;23.58;35.84
50384;BME280;36301;48.310;12.786;2023-06-14T06:19:20;95924.00;;;24.29;35.23
50384;BME280;36301;48.310;12.786;2023-06-14T06:21:47;95917.66;;;23.53;35.30
50384;BME280;36301;48.310;12.786;2023-06-14T06:24:14;95926.03;;;23.00;35.84
50384;BME280;36301;48.310;12.786;2023-06-14T06:26:41;95936.28;;;23.23;35.99
50384;BME280;36301;48.310;12.786;2023-06-14T06:29:08;95943.34;;;23.48;37.11
50384;BME280;36301;48.310;12.786;2023-06-14T06:31:35;95942.00;;;24.41;36.26
50384;BME280;36301;48.310;12.786;2023-06-14T06:34:02;95946.34;;;23.69;36.26
50384;BME280;36301;48.310;12.786;2023-06-14T06:36:29;95938.94;;;23.05;36.10
50384;BME280;36301;48.310;12.786;2023-06-14T06:38:55;95946.34;;;23.69;36.20
50384;BME280;36301;48.310;12.786;2023-06-14T06:41:22;95938.94;;;23.97;37.16
50384;BME280;36301;48.310;12.786;2023-06-14T06:43:49;95939.41;;;23.40;36.15
50384;BME280;36301;48.310;12.786;2023-06-14T06:46:18;95953.81;;;23.10;36.50
50384;BME280;36301;48.310;12.786;2023-06-14T06:48:46;95953.34;;;23.11;36.62
50384;BME280;36301;48.310;12.786;2023-06-14T06:51:13;95954.28;;;23.81;37.26
50384;BME280;36301;48.310;12.786;2023-06-14T06:54:05;95962.16;;;22.53;37.13
50384;BME280;36301;48.310;12.786;2023-06-14T06:56:42;95970.09;;;21.72;38.04
50384;BME280;36301;48.310;12.786;2023-06-14T06:59:10;95967.38;;;21.50;38.75
50384;BME280;36301;48.310;12.786;2023-06-14T07:02:11;95963.41;;;21.64;39.12
50384;BME280;36301;48.310;12.786;2023-06-14T07:08:53;95963.09;;;21.28;39.04
50384;BME280;36301;48.310;12.786;2023-06-14T07:30:16;95971.50;;;23.11;37.72
50384;BME280;36301;48.310;12.786;2023-06-14T07:52:11;95975.41;;;24.29;35.38
50384;BME280;36301;48.310;12.786;2023-06-14T09:09:05;96003.81;;;25.57;37.00
50384;BME280;36301;48.310;12.786;2023-06-14T09:39:59;96014.03;;;24.39;32.67
50384;BME280;36301;48.310;12.786;2023-06-14T09:42:30;96012.28;;;23.90;33.65
50384;BME280;36301;48.310;12.786;2023-06-14T09:45:02;96012.16;;;24.96;34.30
50384;BME280;36301;48.310;12.786;2023-06-14T09:47:35;96016.75;;;25.14;33.33
50384;BME280;36301;48.310;12.786;2023-06-14T09:50:19;96016.91;;;25.82;33.35
50384;BME280;36301;48.310;12.786;2023-06-14T09:52:53;96020.50;;;26.03;32.41
50384;BME280;36301;48.310;12.786;2023-06-14T09:55:29;96017.41;;;25.72;33.34
50384;BME280;36301;48.310;12.786;2023-06-14T09:58:05;96012.31;;;25.50;33.19
50384;BME280;36301;48.310;12.786;2023-06-14T10:00:40;96018.84;;;24.16;34.76
50384;BME280;36301;48.310;12.786;2023-06-14T10:03:28;96017.63;;;24.17;34.49
50384;BME280;36301;48.310;12.786;2023-06-14T10:06:31;96006.81;;;24.26;34.47
50384;BME280;36301;48.310;12.786;2023-06-14T11:25:08;95989.28;;;23.67;33.13
50384;BME280;36301;48.310;12.786;2023-06-14T11:27:35;95976.78;;;22.74;34.07
50384;BME280;36301;48.310;12.786;2023-06-14T11:30:02;95977.91;;;22.54;35.59
50384;BME280;36301;48.310;12.786;2023-06-14T11:32:31;95967.53;;;22.13;35.76
50384;BME280;36301;48.310;12.786;2023-06-14T11:46:18;95962.00;;;25.10;33.12
50384;BME280;36301;48.310;12.786;2023-06-14T12:03:47;95950.22;;;23.86;30.51
50384;BME280;36301;48.310;12.786;2023-06-14T12:06:14;95938.34;;;23.10;31.87
50384;BME280;36301;48.310;12.786;2023-06-14T12:08:42;95951.97;;;22.88;32.50
50384;BME280;36301;48.310;12.786;2023-06-14T12:11:33;95945.13;;;23.51;31.53
50384;BME280;36301;48.310;12.786;2023-06-14T12:22:34;95934.72;;;24.14;33.44
50384;BME280;36301;48.310;12.786;2023-06-14T12:25:00;95942.72;;;23.44;31.62
50384;BME280;36301;48.310;12.786;2023-06-14T12:27:27;95950.19;;;23.03;32.49
50384;BME280;36301;48.310;12.786;2023-06-14T12:30:02;95957.59;;;22.32;31.87
50384;BME280;36301;48.310;12.786;2023-06-14T12:35:55;95953.41;;;22.40;31.40
50384;BME280;36301;48.310;12.786;2023-06-14T12:38:43;95945.75;;;22.78;31.32
50384;BME280;36301;48.310;12.786;2023-06-14T13:04:21;95932.63;;;24.09;31.85
50384;BME280;36301;48.310;12.786;2023-06-14T13:06:48;95945.91;;;22.75;32.43
50384;BME280;36301;48.310;12.786;2023-06-14T13:09:15;95941.50;;;22.19;33.41
50384;BME280;36301;48.310;12.786;2023-06-14T13:11:42;95949.41;;;22.13;33.86
50384;BME280;36301;48.310;12.786;2023-06-14T13:44:45;95946.19;;;23.45;34.65
50384;BME280;36301;48.310;12.786;2023-06-14T13:47:40;95936.25;;;23.42;34.22
50384;BME280;36301;48.310;12.786;2023-06-14T14:28:31;95934.47;;;23.94;33.71
50384;BME280;36301;48.310;12.786;2023-06-14T14:38:24;95950.13;;;22.85;34.33
50384;BME280;36301;48.310;12.786;2023-06-14T14:40:51;95943.78;;;22.30;35.30
50384;BME280;36301;48.310;12.786;2023-06-14T15:09:56;95952.47;;;23.42;35.32
50384;BME280;36301;48.310;12.786;2023-06-14T15:12:23;95954.16;;;22.40;34.94
50384;BME280;36301;48.310;12.786;2023-06-14T15:14:51;95947.69;;;22.07;36.17
50384;BME280;36301;48.310;12.786;2023-06-14T15:17:30;95955.59;;;22.01;37.51
50384;BME280;36301;48.310;12.786;2023-06-14T15:19:57;95943.25;;;21.69;36.92
50384;BME280;36301;48.310;12.786;2023-06-14T15:26:12;95950.84;;;21.83;36.32
50384;BME280;36301;48.310;12.786;2023-06-14T15:36:15;95951.09;;;22.51;35.57
50384;BME280;36301;48.310;12.786;2023-06-14T15:38:41;95943.91;;;22.04;36.19
50384;BME280;36301;48.310;12.786;2023-06-14T15:47:54;95933.13;;;22.04;34.86
50384;BME280;36301;48.310;12.786;2023-06-14T16:54:55;95970.34;;;22.40;37.67
50384;BME280;36301;48.310;12.786;2023-06-14T16:57:23;95973.94;;;22.37;37.43
50384;BME280;36301;48.310;12.786;2023-06-14T16:59:56;95977.56;;;22.43;37.29
50384;BME280;36301;48.310;12.786;2023-06-14T17:02:32;95972.16;;;22.12;35.48
50384;BME280;36301;48.310;12.786;2023-06-14T17:05:06;95974.47;;;22.01;34.82
50384;BME280;36301;48.310;12.786;2023-06-14T17:07:40;95975.53;;;21.82;36.23
50384;BME280;36301;48.310;12.786;2023-06-14T17:10:11;95981.69;;;21.60;37.12
50384;BME280;36301;48.310;12.786;2023-06-14T17:12:39;95988.19;;;21.50;37.28
50384;BME280;36301;48.310;12.786;2023-06-14T17:15:13;95999.25;;;21.52;36.83
50384;BME280;36301;48.310;12.786;2023-06-14T17:17:47;95997.78;;;21.38;38.13
50384;BME280;36301;48.310;12.786;2023-06-14T17:31:51;95999.03;;;20.61;39.89
50384;BME280;36301;48.310;12.786;2023-06-14T17:34:17;95997.72;;;20.40;40.51
50384;BME280;36301;48.310;12.786;2023-06-14T17:36:46;96017.81;;;20.35;40.53
50384;BME280;36301;48.310;12.786;2023-06-14T17:39:37;96022.38;;;20.51;41.41
50384;BME280;36301;48.310;12.786;2023-06-14T17:46:10;96013.59;;;20.21;41.53
50384;BME280;36301;48.310;12.786;2023-06-14T17:49:20;96035.84;;;20.22;41.75
50384;BME280;36301;48.310;12.786;2023-06-14T18:00:04;96033.53;;;19.95;41.71
50384;BME280;36301;48.310;12.786;2023-06-14T18:02:31;96045.22;;;19.88;42.12
50384;BME280;36301;48.310;12.786;2023-06-14T18:04:58;96030.22;;;19.75;42.36
50384;BME280;36301;48.310;12.786;2023-06-14T18:07:25;96046.19;;;19.65;43.28
50384;BME280;36301;48.310;12.786;2023-06-14T18:09:53;96052.16;;;19.57;43.36
50384;BME280;36301;48.310;12.786;2023-06-14T18:12:20;96047.38;;;19.48;43.31
50384;BME280;36301;48.310;12.786;2023-06-14T18:14:46;96049.44;;;19.40;44.07
50384;BME280;36301;48.310;12.786;2023-06-14T18:17:13;96056.50;;;19.34;44.15
50384;BME280;36301;48.310;12.786;2023-06-14T18:19:39;96046.34;;;19.26;43.76
50384;BME280;36301;48.310;12.786;2023-06-14T18:22:08;96052.16;;;19.24;44.29
50384;BME280;36301;48.310;12.786;2023-06-14T18:24:34;96057.69;;;19.17;44.18
50384;BME280;36301;48.310;12.786;2023-06-14T18:27:01;96053.22;;;19.10;44.38
50384;BME280;36301;48.310;12.786;2023-06-14T18:29:29;96057.16;;;19.06;45.06
50384;BME280;36301;48.310;12.786;2023-06-14T18:31:55;96058.84;;;19.00;45.05
50384;BME280;36301;48.310;12.786;2023-06-14T18:34:23;96058.84;;;19.00;45.08
50384;BME280;36301;48.310;12.786;2023-06-14T18:36:50;96058.59;;;18.94;45.41
50384;BME280;36301;48.310;12.786;2023-06-14T18:39:18;96059.84;;;18.89;45.12
50384;BME280;36301;48.310;12.786;2023-06-14T18:41:45;96048.34;;;18.73;45.93
50384;BME280;36301;48.310;12.786;2023-06-14T18:44:12;96056.84;;;18.67;45.37
50384;BME280;36301;48.310;12.786;2023-06-14T18:46:38;96067.53;;;18.71;45.49
50384;BME280;36301;48.310;12.786;2023-06-14T18:49:05;96067.19;;;18.69;45.10
50384;BME280;36301;48.310;12.786;2023-06-14T18:51:31;96068.22;;;18.55;45.99
50384;BME280;36301;48.310;12.786;2023-06-14T18:54:00;96069.09;;;18.49;46.29
50384;BME280;36301;48.310;12.786;2023-06-14T18:56:28;96068.41;;;18.45;46.92
50384;BME280;36301;48.310;12.786;2023-06-14T18:58:56;96076.00;;;18.30;47.40
50384;BME280;36301;48.310;12.786;2023-06-14T19:01:22;96066.38;;;18.12;47.81
50384;BME280;36301;48.310;12.786;2023-06-14T19:03:49;96079.63;;;18.20;47.89
50384;BME280;36301;48.310;12.786;2023-06-14T19:06:16;96082.13;;;18.10;48.64
50384;BME280;36301;48.310;12.786;2023-06-14T19:08:42;96085.31;;;18.02;48.98
50384;BME280;36301;48.310;12.786;2023-06-14T19:11:09;96081.63;;;17.96;49.16
50384;BME280;36301;48.310;12.786;2023-06-14T19:13:36;96085.53;;;17.91;49.13
50384;BME280;36301;48.310;12.786;2023-06-14T19:16:03;96098.56;;;17.89;49.31
50384;BME280;36301;48.310;12.786;2023-06-14T19:18:30;96099.09;;;17.80;49.94
50384;BME280;36301;48.310;12.786;2023-06-14T19:20:56;96080.56;;;17.66;50.48
50384;BME280;36301;48.310;12.786;2023-06-14T19:23:23;96105.25;;;17.77;50.22
50384;BME280;36301;48.310;12.786;2023-06-14T19:25:50;96105.31;;;17.74;50.30
50384;BME280;36301;48.310;12.786;2023-06-14T19:28:17;96113.50;;;17.63;50.78
50384;BME280;36301;48.310;12.786;2023-06-14T19:30:46;96111.56;;;17.63;50.31
50384;BME280;36301;48.310;12.786;2023-06-14T19:33:13;96118.56;;;17.57;50.39
50384;BME280;36301;48.310;12.786;2023-06-14T19:35:39;96115.59;;;17.52;50.91
50384;BME280;36301;48.310;12.786;2023-06-14T19:38:06;96106.00;;;17.54;49.67
50384;BME280;36301;48.310;12.786;2023-06-14T19:40:32;96119.72;;;17.56;50.14
50384;BME280;36301;48.310;12.786;2023-06-14T19:42:59;96121.13;;;17.41;51.11
50384;BME280;36301;48.310;12.786;2023-06-14T19:45:26;96124.13;;;17.43;50.55
50384;BME280;36301;48.310;12.786;2023-06-14T19:47:52;96129.25;;;17.34;50.87
50384;BME280;36301;48.310;12.786;2023-06-14T19:50:32;96133.16;;;17.29;51.68
50384;BME280;36301;48.310;12.786;2023-06-14T19:52:58;96144.34;;;17.21;51.55
50384;BME280;36301;48.310;12.786;2023-06-14T19:55:25;96142.44;;;17.21;50.82
50384;BME280;36301;48.310;12.786;2023-06-14T19:57:53;96149.22;;;17.29;51.01
50384;BME280;36301;48.310;12.786;2023-06-14T20:00:19;96134.81;;;17.20;50.93
50384;BME280;36301;48.310;12.786;2023-06-14T20:02:46;96140.94;;;17.20;51.10
50384;BME280;36301;48.310;12.786;2023-06-14T20:05:12;96155.50;;;17.16;51.77
50384;BME280;36301;48.310;12.786;2023-06-14T20:07:39;96153.19;;;17.18;51.44
50384;BME280;36301;48.310;12.786;2023-06-14T20:10:06;96151.38;;;17.11;51.66
50384;BME280;36301;48.310;12.786;2023-06-14T20:12:33;96158.28;;;17.08;52.04
50384;BME280;36301;48.310;12.786;2023-06-14T20:14:59;96163.41;;;16.96;52.71
50384;BME280;36301;48.310;12.786;2023-06-14T20:17:26;96155.19;;;16.83;52.83
50384;BME280;36301;48.310;12.786;2023-06-14T20:19:52;96164.31;;;16.85;53.23
50384;BME280;36301;48.310;12.786;2023-06-14T20:22:19;96162.78;;;16.84;53.24
50384;BME280;36301;48.310;12.786;2023-06-14T20:24:45;96154.53;;;16.72;53.56
50384;BME280;36301;48.310;12.786;2023-06-14T20:27:12;96170.13;;;16.77;53.76
50384;BME280;36301;48.310;12.786;2023-06-14T20:29:39;96162.13;;;16.77;54.08
50384;BME280;36301;48.310;12.786;2023-06-14T20:32:05;96153.78;;;16.71;54.10
50384;BME280;36301;48.310;12.786;2023-06-14T20:34:33;96160.25;;;16.70;53.97
50384;BME280;36301;48.310;12.786;2023-06-14T20:37:00;96157.59;;;16.70;54.28
50384;BME280;36301;48.310;12.786;2023-06-14T20:39:26;96161.00;;;16.71;53.98
50384;BME280;36301;48.310;12.786;2023-06-14T20:41:53;96162.59;;;16.68;54.43
50384;BME280;36301;48.310;12.786;2023-06-14T20:44:23;96162.94;;;16.70;54.42
50384;BME280;36301;48.310;12.786;2023-06-14T20:46:56;96163.38;;;16.65;54.85
50384;BME280;36301;48.310;12.786;2023-06-14T20:49:24;96169.44;;;16.69;54.57
50384;BME280;36301;48.310;12.786;2023-06-14T20:51:53;96160.25;;;16.74;54.32
50384;BME280;36301;48.310;12.786;2023-06-14T20:54:19;96158.38;;;16.67;54.43
50384;BME280;36301;48.310;12.786;2023-06-14T20:56:46;96158.75;;;16.69;54.95
50384;BME280;36301;48.310;12.786;2023-06-14T20:59:12;96170.19;;;16.70;55.09
50384;BME280;36301;48.310;12.786;2023-06-14T21:01:39;96161.78;;;16.71;55.64
50384;BME280;36301;48.310;12.786;2023-06-14T21:04:06;96164.09;;;16.73;55.30
50384;BME280;36301;48.310;12.786;2023-06-14T21:06:32;96153.13;;;16.60;55.84
50384;BME280;36301;48.310;12.786;2023-06-14T21:09:03;96163.72;;;16.67;55.81
50384;BME280;36301;48.310;12.786;2023-06-14T21:11:29;96163.72;;;16.67;56.40
50384;BME280;36301;48.310;12.786;2023-06-14T21:13:56;96161.00;;;16.74;55.67
50384;BME280;36301;48.310;12.786;2023-06-14T21:16:22;96170.94;;;16.70;55.60
50384;BME280;36301;48.310;12.786;2023-06-14T21:18:49;96167.16;;;16.71;55.68
50384;BME280;36301;48.310;12.786;2023-06-14T21:21:15;96166.03;;;16.65;56.55
50384;BME280;36301;48.310;12.786;2023-06-14T21:23:42;96162.72;;;16.57;56.73
50384;BME280;36301;48.310;12.786;2023-06-14T21:26:09;96164.56;;;16.60;56.53
50384;BME280;36301;48.310;12.786;2023-06-14T21:28:35;96161.56;;;16.58;56.50
